< < Back
Terminal Aerodrome Forecast


Current Version              Previous Versions:   1  2  3  4  5  6  7  8  9  

Terminal Aerodrome Forecast

404
FTUS42 KJAX 221100
TAFSSI
TAF
KSSI 221120Z 2212/2312 03012G18KT P6SM SCT025 BKN050
     FM221500 04013G20KT P6SM VCSH BKN025 OVC070
     FM221700 05015G25KT P6SM VCSH BKN020 OVC070
     FM230200 06013KT 5SM -RA BR OVC015 WS020/10040KT=

Latest METAR

410
SAUS70 KWBC 230500 RRB
MTRSSI
METAR KSSI 230453Z AUTO 07007KT 10SM BKN048 OVC055 17/16 A3017 RMK AO2
SLP217 T01720156 401830144


USA.gov is the U.S. government's official web portal to all federal, state and local government web resources and services.